Port Allen, Hawaii
Current Conditions -  °F | °C
As of 10:56 PM on Thursday 30 Oct 2014 (Local Time) from PHBK Reporting Station
Scattered Clouds Scattered Clouds  
Wind Chill: 77°   Ceiling: Unl
Heat Index: 79°   Visibility: 9mi
Dew Point: 69°   Wind: 5mph
Humidity: 76%   Direction: 250°WSW
Pressure: 30.06"   Gusts: NA
Location:  21.9°N, 159.6°W
Report Text: PHBK 310856Z AUTO 25004KT 9SM SCT050 25/21 A3006 RMK AO2 SLP180 T02500206 50001
Loading
Personal Weather Stations






























Interactive Weather Map
Tropical Storm Tracking
New forecast layout! Learn more

10-Day Weather Forecast

Advertisements
Track Severe Weather on mobile